createdAt,value
2019-05-18T00:01:34.412Z,13.53
2019-05-18T00:04:03.215Z,15.55
2019-05-18T00:06:31.687Z,15.58
2019-05-18T00:09:00.139Z,13.50
2019-05-18T00:11:28.613Z,15.48
2019-05-18T00:13:57.136Z,13.55
2019-05-18T00:16:25.632Z,14.75
2019-05-18T00:18:54.090Z,13.70
2019-05-18T00:21:22.559Z,14.20
2019-05-18T00:23:51.010Z,15.43
2019-05-18T00:26:19.491Z,13.93
2019-05-18T00:28:48.579Z,13.35
2019-05-18T00:31:17.051Z,14.45
2019-05-18T00:33:45.512Z,13.83
2019-05-18T00:36:13.987Z,15.30
2019-05-18T00:38:42.727Z,14.35
2019-05-18T00:41:11.527Z,13.32
2019-05-18T00:43:40.056Z,13.38
2019-05-18T00:46:08.903Z,14.93
2019-05-18T00:48:37.354Z,14.35
2019-05-18T00:51:06.192Z,13.88
2019-05-18T00:53:35.079Z,15.15
2019-05-18T00:56:03.551Z,14.00
2019-05-18T00:58:32.359Z,13.62
2019-05-18T01:01:01.151Z,13.72
2019-05-18T01:03:29.678Z,14.95
2019-05-18T01:05:58.542Z,15.30
2019-05-18T01:08:27.343Z,13.95
2019-05-18T01:10:56.221Z,13.80
2019-05-18T01:13:24.667Z,10.45
2019-05-18T01:15:53.500Z,12.03
2019-05-18T01:18:22.224Z,13.88
2019-05-18T01:20:51.908Z,16.30
2019-05-18T01:23:20.358Z,17.37
2019-05-18T01:25:49.185Z,13.28
2019-05-18T01:28:17.979Z,12.00
2019-05-18T01:30:46.495Z,12.68
2019-05-18T01:33:15.004Z,13.83
2019-05-18T01:35:43.947Z,17.82
2019-05-18T01:38:12.731Z,18.48
2019-05-18T01:40:41.187Z,16.17
2019-05-18T01:43:10.019Z,16.17
2019-05-18T01:45:38.471Z,12.07
2019-05-18T01:48:14.267Z,12.88
2019-05-18T01:50:37.418Z,13.80
2019-05-18T01:53:05.891Z,13.93
2019-05-18T01:55:34.349Z,13.68
2019-05-18T01:58:03.213Z,14.25
2019-05-18T02:00:31.706Z,12.50
2019-05-18T02:03:00.455Z,11.75
2019-05-18T02:05:29.257Z,12.47
2019-05-18T02:07:58.061Z,13.15
2019-05-18T02:10:26.935Z,12.40
2019-05-18T02:12:55.733Z,12.98
2019-05-18T02:15:24.254Z,13.08
2019-05-18T02:17:53.014Z,15.80
2019-05-18T02:20:21.809Z,13.18
2019-05-18T02:22:50.611Z,14.07
2019-05-18T02:25:19.491Z,14.35
2019-05-18T02:27:48.287Z,15.25
2019-05-18T02:30:17.795Z,15.60
2019-05-18T02:32:46.900Z,13.90
2019-05-18T02:35:16.960Z,16.25
2019-05-18T02:37:45.434Z,13.38
2019-05-18T02:40:14.305Z,17.02
2019-05-18T02:42:43.194Z,14.50
2019-05-18T02:45:12.091Z,14.38
2019-05-18T02:47:40.647Z,19.10
2019-05-18T02:50:10.511Z,13.30
2019-05-18T02:52:39.055Z,15.43
2019-05-18T02:55:08.657Z,12.70
2019-05-18T02:57:37.210Z,12.93
2019-05-18T03:00:12.621Z,13.83
2019-05-18T03:02:41.175Z,12.82
2019-05-18T03:05:10.135Z,13.48
2019-05-18T03:07:38.630Z,17.35
2019-05-18T03:10:07.492Z,17.40
2019-05-18T03:12:35.964Z,16.17
2019-05-18T03:15:06.616Z,15.35
2019-05-18T03:17:35.219Z,16.97
2019-05-18T03:20:05.682Z,15.83
2019-05-18T03:22:34.520Z,17.27
2019-05-18T03:25:03.616Z,15.08
2019-05-18T03:27:32.516Z,15.50
2019-05-18T03:30:00.976Z,15.63
2019-05-18T03:32:29.513Z,18.65
2019-05-18T03:34:58.056Z,16.97
2019-05-18T03:37:26.603Z,14.43
2019-05-18T03:39:55.135Z,11.80
2019-05-18T03:42:23.934Z,13.75
2019-05-18T03:44:52.404Z,15.55
2019-05-18T03:47:20.936Z,14.47
2019-05-18T03:49:49.407Z,14.30
2019-05-18T03:52:18.191Z,14.35
2019-05-18T03:54:46.983Z,16.35
2019-05-18T03:57:15.516Z,15.03
2019-05-18T03:59:44.060Z,14.33
2019-05-18T04:02:12.583Z,13.32
2019-05-18T04:04:41.336Z,15.18
2019-05-18T04:07:10.137Z,16.30
2019-05-18T04:09:39.020Z,17.73
2019-05-18T04:12:07.476Z,16.48
2019-05-18T04:14:36.307Z,12.73
2019-05-18T04:17:04.763Z,12.03
2019-05-18T04:19:45.601Z,14.80
2019-05-18T04:22:03.811Z,16.12
2019-05-18T04:24:32.746Z,13.38
2019-05-18T04:27:01.204Z,12.43
2019-05-18T04:29:29.980Z,11.43
2019-05-18T04:31:58.512Z,11.65
2019-05-18T04:34:27.363Z,11.60
2019-05-18T04:36:55.820Z,12.13
2019-05-18T04:39:24.643Z,12.53
2019-05-18T04:41:53.103Z,11.68
2019-05-18T04:44:21.924Z,10.98
2019-05-18T04:46:50.818Z,9.93
2019-05-18T04:49:19.607Z,10.53
2019-05-18T04:51:48.063Z,10.03
2019-05-18T04:54:16.531Z,9.83
2019-05-18T04:56:45.269Z,10.25
2019-05-18T04:59:13.740Z,10.23
2019-05-18T05:01:42.564Z,9.35
2019-05-18T05:04:11.443Z,9.70
2019-05-18T05:06:40.241Z,9.28
2019-05-18T05:09:09.352Z,9.75
2019-05-18T05:11:38.237Z,10.20
2019-05-18T05:14:06.846Z,9.73
2019-05-18T05:16:35.562Z,9.88
2019-05-18T05:19:04.032Z,9.15
2019-05-18T05:21:32.787Z,9.43
2019-05-18T05:24:01.300Z,9.35
2019-05-18T05:26:29.831Z,10.63
2019-05-18T05:28:58.295Z,9.30
2019-05-18T05:31:27.040Z,9.18
2019-05-18T05:33:55.831Z,9.13
2019-05-18T05:36:24.308Z,9.48
2019-05-18T05:38:52.831Z,10.20
2019-05-18T05:41:21.592Z,9.83
2019-05-18T05:43:50.042Z,10.30
2019-05-18T05:46:18.775Z,9.80
2019-05-18T05:48:47.228Z,9.85
2019-05-18T05:51:16.051Z,10.63
2019-05-18T05:53:44.760Z,10.03
2019-05-18T05:56:13.543Z,10.28
2019-05-18T05:58:42.431Z,7.53
2019-05-18T06:01:11.052Z,8.28
2019-05-18T06:03:39.568Z,6.10
2019-05-18T06:06:08.400Z,6.72
2019-05-18T06:08:37.196Z,6.97
2019-05-18T06:11:06.087Z,6.65
2019-05-18T06:13:34.539Z,4.22
2019-05-18T06:16:03.367Z,3.65
2019-05-18T06:18:31.815Z,4.80
2019-05-18T06:21:00.279Z,3.40
2019-05-18T06:23:28.730Z,4.33
2019-05-18T06:25:57.527Z,4.17
2019-05-18T06:28:25.993Z,4.15
2019-05-18T06:30:54.896Z,4.08
2019-05-18T06:33:23.690Z,3.90
2019-05-18T06:35:52.479Z,3.65
2019-05-18T06:38:20.932Z,3.35
2019-05-18T06:40:49.403Z,4.00
2019-05-18T06:43:18.144Z,3.33
2019-05-18T06:45:46.617Z,3.58
2019-05-18T06:48:15.062Z,3.22
2019-05-18T06:50:43.275Z,3.70
2019-05-18T06:53:11.733Z,4.28
2019-05-18T06:55:42.919Z,3.95
2019-05-18T06:58:12.321Z,3.85
2019-05-18T07:00:40.868Z,3.80
2019-05-18T07:03:09.613Z,3.98
2019-05-18T07:05:38.079Z,3.67
2019-05-18T07:08:06.897Z,3.55
2019-05-18T07:10:35.781Z,3.87
2019-05-18T07:13:04.580Z,3.70
2019-05-18T07:15:33.050Z,4.00
2019-05-18T07:18:01.580Z,3.50
2019-05-18T07:20:30.043Z,3.77
2019-05-18T07:22:58.829Z,3.58
2019-05-18T07:25:27.300Z,3.40
2019-05-18T07:27:55.756Z,3.72
2019-05-18T07:30:24.207Z,3.87
2019-05-18T07:32:52.751Z,4.00
2019-05-18T07:35:21.946Z,3.52
2019-05-18T07:37:50.503Z,3.60
2019-05-18T07:40:19.451Z,3.22
2019-05-18T07:42:48.243Z,3.80
2019-05-18T07:45:17.635Z,3.90
2019-05-18T07:47:46.447Z,4.10
2019-05-18T07:50:15.705Z,4.42
2019-05-18T07:52:44.547Z,3.98
2019-05-18T07:55:13.088Z,4.20
2019-05-18T07:57:41.627Z,4.00
2019-05-18T08:00:10.788Z,4.33
2019-05-18T08:02:39.619Z,3.62
2019-05-18T08:05:09.567Z,4.00
2019-05-18T08:07:38.327Z,3.85
2019-05-18T08:10:08.534Z,4.12
2019-05-18T08:12:37.078Z,3.80
2019-05-18T08:15:09.107Z,4.08
2019-05-18T08:17:37.579Z,3.72
2019-05-18T08:20:07.471Z,3.55
2019-05-18T08:22:35.939Z,4.00
2019-05-18T08:25:08.631Z,3.55
2019-05-18T08:27:37.163Z,3.80
2019-05-18T08:30:07.118Z,3.40
2019-05-18T08:32:35.901Z,4.15
2019-05-18T08:35:06.475Z,4.17
2019-05-18T08:37:35.400Z,3.98
2019-05-18T08:40:06.259Z,3.33
2019-05-18T08:42:35.040Z,4.03
2019-05-18T08:45:04.929Z,3.83
2019-05-18T08:47:33.407Z,4.10
2019-05-18T08:50:02.240Z,4.15
2019-05-18T08:52:30.968Z,4.08
2019-05-18T08:54:59.415Z,3.72
2019-05-18T08:57:28.204Z,3.70
2019-05-18T08:59:56.918Z,3.30
2019-05-18T09:02:25.384Z,3.70
2019-05-18T09:04:54.184Z,4.33
2019-05-18T09:07:22.725Z,4.40
2019-05-18T09:09:51.179Z,5.87
2019-05-18T09:12:19.652Z,3.42
2019-05-18T09:14:48.115Z,3.55
2019-05-18T09:17:17.011Z,3.75
2019-05-18T09:19:45.807Z,3.87
2019-05-18T09:22:22.770Z,3.77
2019-05-18T09:24:44.447Z,3.83
2019-05-18T09:27:13.232Z,4.20
2019-05-18T09:29:41.679Z,4.00
2019-05-18T09:32:10.159Z,3.62
2019-05-18T09:34:38.614Z,4.50
2019-05-18T09:37:07.454Z,4.40
2019-05-18T09:39:36.360Z,4.30
2019-05-18T09:42:04.818Z,3.85
2019-05-18T09:44:33.539Z,4.40
2019-05-18T09:47:01.996Z,4.45
2019-05-18T09:49:30.916Z,4.90
2019-05-18T09:51:59.633Z,4.83
2019-05-18T09:54:28.170Z,4.67
2019-05-18T09:56:56.975Z,4.72
2019-05-18T09:59:25.764Z,4.92
2019-05-18T10:01:54.239Z,5.22
2019-05-18T10:04:22.718Z,5.05
2019-05-18T10:06:51.247Z,5.15
2019-05-18T10:09:19.799Z,5.20
2019-05-18T10:11:48.265Z,4.40
2019-05-18T10:14:17.102Z,5.00
2019-05-18T10:16:45.554Z,4.25
2019-05-18T10:19:14.375Z,4.20
2019-05-18T10:21:42.911Z,5.28
2019-05-18T10:24:11.655Z,5.28
2019-05-18T10:26:40.370Z,4.72
2019-05-18T10:29:09.247Z,4.35
2019-05-18T10:31:38.035Z,4.75
2019-05-18T10:34:06.771Z,4.62
2019-05-18T10:36:35.666Z,4.90
2019-05-18T10:39:06.609Z,4.22
2019-05-18T10:41:35.375Z,5.78
2019-05-18T10:44:04.371Z,4.70
2019-05-18T10:46:32.830Z,4.75
2019-05-18T10:49:01.737Z,4.92
2019-05-18T10:51:30.258Z,4.65
2019-05-18T10:53:58.727Z,4.50
2019-05-18T10:56:31.017Z,5.00
2019-05-18T10:58:58.001Z,4.20
2019-05-18T11:01:26.840Z,5.08
2019-05-18T11:03:55.615Z,4.55
2019-05-18T11:06:24.084Z,4.05
2019-05-18T11:08:52.555Z,4.83
2019-05-18T11:11:21.013Z,4.08
2019-05-18T11:13:49.885Z,4.20
2019-05-18T11:16:18.764Z,4.70
2019-05-18T11:18:47.236Z,4.15
2019-05-18T11:21:15.700Z,3.92
2019-05-18T11:23:47.862Z,4.20
2019-05-18T11:26:14.707Z,4.22
2019-05-18T11:29:02.900Z,5.03
2019-05-18T11:31:31.784Z,4.10
2019-05-18T11:34:00.257Z,4.03
2019-05-18T11:36:29.059Z,4.05
2019-05-18T11:39:00.424Z,3.90
2019-05-18T11:41:29.215Z,3.15
2019-05-18T11:43:57.679Z,3.75
2019-05-18T11:46:26.126Z,4.30
2019-05-18T11:48:54.602Z,3.70
2019-05-18T11:51:23.099Z,4.03
2019-05-18T11:53:58.194Z,3.72
2019-05-18T11:56:22.080Z,3.55
2019-05-18T11:58:50.543Z,3.80
2019-05-18T12:01:19.083Z,3.90
2019-05-18T12:03:47.535Z,3.92
2019-05-18T12:06:16.275Z,6.17
2019-05-18T12:08:44.806Z,3.87
2019-05-18T12:11:13.343Z,4.10
2019-05-18T12:13:42.080Z,4.20
2019-05-18T12:16:10.572Z,3.50
2019-05-18T12:18:39.460Z,4.00
2019-05-18T12:21:08.079Z,4.17
2019-05-18T12:23:36.839Z,3.62
2019-05-18T12:26:05.379Z,3.08
2019-05-18T12:28:33.826Z,3.35
2019-05-18T12:31:02.344Z,3.02
2019-05-18T12:33:31.195Z,3.40
2019-05-18T12:35:59.932Z,3.10
2019-05-18T12:38:28.379Z,3.05
2019-05-18T12:40:56.843Z,3.20
2019-05-18T12:43:25.298Z,2.80
2019-05-18T12:45:54.158Z,2.92
2019-05-18T12:48:22.660Z,2.50
2019-05-18T12:50:51.415Z,2.95
2019-05-18T12:53:20.214Z,3.05
2019-05-18T12:55:48.756Z,3.00
2019-05-18T12:58:17.206Z,2.62
2019-05-18T13:00:46.077Z,2.72
2019-05-18T13:03:14.522Z,2.98
2019-05-18T13:05:42.998Z,2.80
2019-05-18T13:08:11.447Z,2.67
2019-05-18T13:10:40.319Z,2.45
2019-05-18T13:13:08.774Z,2.92
2019-05-18T13:15:37.247Z,2.95
2019-05-18T13:18:05.704Z,2.67
2019-05-18T13:20:34.244Z,2.80
2019-05-18T13:23:02.704Z,2.60
2019-05-18T13:25:31.547Z,2.70
2019-05-18T13:28:00.340Z,2.50
2019-05-18T13:30:29.242Z,2.65
2019-05-18T13:32:58.130Z,2.60
2019-05-18T13:35:26.655Z,2.37
2019-05-18T13:37:55.139Z,2.58
2019-05-18T13:40:24.017Z,2.10
2019-05-18T13:42:52.898Z,2.12
2019-05-18T13:45:21.585Z,2.10
2019-05-18T13:47:50.406Z,2.05
2019-05-18T13:50:19.074Z,2.58
2019-05-18T13:52:47.969Z,2.30
2019-05-18T13:55:17.331Z,2.55
2019-05-18T13:57:46.162Z,2.10
2019-05-18T14:00:15.060Z,2.20
2019-05-18T14:02:43.611Z,2.20
2019-05-18T14:05:24.915Z,2.40
2019-05-18T14:07:56.635Z,1.75
2019-05-18T14:10:25.087Z,1.80
2019-05-18T14:12:53.964Z,2.20
2019-05-18T14:15:23.250Z,2.00
2019-05-18T14:17:54.517Z,2.20
2019-05-18T14:20:26.205Z,2.08
2019-05-18T14:22:53.233Z,2.08
2019-05-18T14:25:21.762Z,2.10
2019-05-18T14:27:50.567Z,2.08
2019-05-18T14:30:26.554Z,1.82
2019-05-18T14:32:56.513Z,2.35
2019-05-18T14:35:28.374Z,1.95
2019-05-18T14:37:56.918Z,2.22
2019-05-18T14:40:25.817Z,1.70
2019-05-18T14:42:54.712Z,2.17
2019-05-18T14:45:23.519Z,2.20
2019-05-18T14:47:52.722Z,2.15
2019-05-18T14:50:21.468Z,2.00
2019-05-18T14:52:50.314Z,1.82
2019-05-18T14:55:32.401Z,1.72
2019-05-18T14:57:49.027Z,1.90
2019-05-18T15:00:18.692Z,2.15
2019-05-18T15:02:47.158Z,1.70
2019-05-18T15:05:16.051Z,2.10
2019-05-18T15:07:44.900Z,1.82
2019-05-18T15:10:15.026Z,1.75
2019-05-18T15:12:43.495Z,1.85
2019-05-18T15:15:12.951Z,1.77
2019-05-18T15:17:41.822Z,1.80
2019-05-18T15:20:11.230Z,1.98
2019-05-18T15:22:40.119Z,2.05
2019-05-18T15:25:09.519Z,2.22
2019-05-18T15:27:38.319Z,2.40
2019-05-18T15:30:07.728Z,2.20
2019-05-18T15:32:36.616Z,2.35
2019-05-18T15:35:07.312Z,2.50
2019-05-18T15:37:35.858Z,2.30
2019-05-18T15:40:05.967Z,2.12
2019-05-18T15:42:34.439Z,2.40
2019-05-18T15:45:04.700Z,2.08
2019-05-18T15:47:33.228Z,1.70
2019-05-18T15:50:01.693Z,1.80
2019-05-18T15:52:30.444Z,1.90
2019-05-18T15:54:58.956Z,1.62
2019-05-18T15:57:27.485Z,1.80
2019-05-18T15:59:56.312Z,1.40
2019-05-18T16:02:25.103Z,1.40
2019-05-18T16:04:53.895Z,1.32
2019-05-18T16:07:22.348Z,1.17
2019-05-18T16:09:50.810Z,1.15
2019-05-18T16:12:19.263Z,1.02
2019-05-18T16:14:47.739Z,1.30
2019-05-18T16:17:16.531Z,1.35
2019-05-18T16:19:45.324Z,1.40
2019-05-18T16:22:14.116Z,1.20
2019-05-18T16:24:42.583Z,1.50
2019-05-18T16:27:11.398Z,1.40
2019-05-18T16:29:39.934Z,1.20
2019-05-18T16:32:08.388Z,1.00
2019-05-18T16:34:36.863Z,1.47
2019-05-18T16:37:05.316Z,1.12
2019-05-18T16:39:33.804Z,1.67
2019-05-18T16:42:02.613Z,1.92
2019-05-18T16:44:31.083Z,1.90
2019-05-18T16:46:59.568Z,2.50
2019-05-18T16:49:28.031Z,2.58
2019-05-18T16:51:56.483Z,2.87
2019-05-18T16:54:25.869Z,3.10
2019-05-18T16:56:54.317Z,2.77
2019-05-18T16:59:23.139Z,3.00
2019-05-18T17:01:51.594Z,2.98
2019-05-18T17:04:20.063Z,3.50
2019-05-18T17:06:48.811Z,2.85
2019-05-18T17:09:17.610Z,3.20
2019-05-18T17:11:48.086Z,2.98
2019-05-18T17:14:16.327Z,2.83
2019-05-18T17:16:44.779Z,3.47
2019-05-18T17:19:13.591Z,3.25
2019-05-18T17:21:42.044Z,3.12
2019-05-18T17:24:10.872Z,3.17
2019-05-18T17:26:52.433Z,3.02
2019-05-18T17:29:09.515Z,2.87
2019-05-18T17:31:38.048Z,3.10
2019-05-18T17:34:06.594Z,3.10
2019-05-18T17:36:35.050Z,2.95
2019-05-18T17:39:04.863Z,2.92
2019-05-18T17:41:33.318Z,3.10
2019-05-18T17:44:01.907Z,2.80
2019-05-18T17:46:30.380Z,3.52
2019-05-18T17:48:58.937Z,2.95
2019-05-18T17:51:27.814Z,3.37
2019-05-18T17:53:56.322Z,3.00
2019-05-18T17:56:25.076Z,3.30
2019-05-18T17:58:53.871Z,3.30
2019-05-18T18:01:22.661Z,3.42
2019-05-18T18:03:51.571Z,3.50
2019-05-18T18:06:20.104Z,3.70
2019-05-18T18:08:48.835Z,3.30
2019-05-18T18:11:17.627Z,3.20
2019-05-18T18:13:46.420Z,3.92
2019-05-18T18:16:15.215Z,3.52
2019-05-18T18:18:44.006Z,3.42
2019-05-18T18:21:12.547Z,4.75
2019-05-18T18:23:41.287Z,3.90
2019-05-18T18:26:10.082Z,3.75
2019-05-18T18:28:38.605Z,3.62
2019-05-18T18:31:07.460Z,4.00
2019-05-18T18:33:36.096Z,3.92
2019-05-18T18:36:04.892Z,4.30
2019-05-18T18:38:33.419Z,4.15
2019-05-18T18:41:01.891Z,4.03
2019-05-18T18:43:30.718Z,4.47
2019-05-18T18:45:59.595Z,4.47
2019-05-18T18:48:28.076Z,4.42
2019-05-18T18:50:56.624Z,5.03
2019-05-18T18:53:25.071Z,4.22
2019-05-18T18:55:53.548Z,4.70
2019-05-18T18:58:22.348Z,6.00
2019-05-18T19:00:51.237Z,6.10
2019-05-18T19:03:20.036Z,6.03
2019-05-18T19:05:48.584Z,5.20
2019-05-18T19:08:17.042Z,5.12
2019-05-18T19:10:45.896Z,5.10
2019-05-18T19:13:15.160Z,4.87
2019-05-18T19:15:43.997Z,5.65
2019-05-18T19:18:12.524Z,6.35
2019-05-18T19:20:41.002Z,6.83
2019-05-18T19:23:09.529Z,6.65
2019-05-18T19:25:38.357Z,12.03
2019-05-18T19:28:06.812Z,8.50
2019-05-18T19:30:35.280Z,7.35
2019-05-18T19:33:04.109Z,5.53
2019-05-18T19:35:32.572Z,5.83
2019-05-18T19:38:01.311Z,7.03
2019-05-18T19:40:29.783Z,6.50
2019-05-18T19:42:58.260Z,6.00
2019-05-18T19:45:26.787Z,7.08
2019-05-18T19:47:55.525Z,7.47
2019-05-18T19:50:24.332Z,8.18
2019-05-18T19:52:52.882Z,7.20
2019-05-18T19:55:21.734Z,6.90
2019-05-18T19:57:50.261Z,6.97
2019-05-18T20:00:19.818Z,7.05
2019-05-18T20:02:48.704Z,7.10
2019-05-18T20:05:17.499Z,6.50
2019-05-18T20:07:46.210Z,6.80
2019-05-18T20:10:15.520Z,6.50
2019-05-18T20:12:44.323Z,6.62
2019-05-18T20:15:15.089Z,6.83
2019-05-18T20:17:43.639Z,7.30
2019-05-18T20:20:12.610Z,8.08
2019-05-18T20:22:41.404Z,7.30
2019-05-18T20:25:10.095Z,7.53
2019-05-18T20:27:38.573Z,7.83
2019-05-18T20:30:07.979Z,7.67
2019-05-18T20:32:36.887Z,7.72
2019-05-18T20:35:05.750Z,7.78
2019-05-18T20:37:34.231Z,7.45
2019-05-18T20:40:02.695Z,8.45
2019-05-18T20:42:31.243Z,8.33
2019-05-18T20:45:00.142Z,8.45
2019-05-18T20:47:28.967Z,8.35
2019-05-18T20:49:57.814Z,8.63
2019-05-18T20:52:26.545Z,8.88
2019-05-18T20:54:55.292Z,9.60
2019-05-18T20:57:23.782Z,12.60
2019-05-18T21:00:12.272Z,17.12
2019-05-18T21:02:41.155Z,9.98
2019-05-18T21:05:10.315Z,8.75
2019-05-18T21:07:38.795Z,9.23
2019-05-18T21:10:09.278Z,9.88
2019-05-18T21:12:38.132Z,10.88
2019-05-18T21:15:07.665Z,10.38
2019-05-18T21:17:36.211Z,10.53
2019-05-18T21:20:06.163Z,10.68
2019-05-18T21:22:34.647Z,11.05
2019-05-18T21:25:03.528Z,11.05
2019-05-18T21:27:32.005Z,10.70
2019-05-18T21:30:00.803Z,9.63
2019-05-18T21:32:29.614Z,10.32
2019-05-18T21:34:58.130Z,10.93
2019-05-18T21:37:26.607Z,10.35
2019-05-18T21:39:55.074Z,11.48
2019-05-18T21:42:23.553Z,12.10
2019-05-18T21:44:52.015Z,11.97
2019-05-18T21:47:20.536Z,11.40
2019-05-18T21:49:49.307Z,12.05
2019-05-18T21:52:17.865Z,12.43
2019-05-18T21:54:46.395Z,11.75
2019-05-18T21:57:14.890Z,11.43
2019-05-18T21:59:43.763Z,11.70
2019-05-18T22:02:12.219Z,10.10
2019-05-18T22:04:40.691Z,11.30
2019-05-18T22:07:09.151Z,11.55
2019-05-18T22:09:37.634Z,11.18
2019-05-18T22:12:06.169Z,11.45
2019-05-18T22:14:34.647Z,11.25
2019-05-18T22:17:03.479Z,11.22
2019-05-18T22:19:32.367Z,11.65
2019-05-18T22:22:20.423Z,11.10
2019-05-18T22:24:48.896Z,11.18
2019-05-18T22:27:17.353Z,10.93
2019-05-18T22:29:45.828Z,10.25
2019-05-18T22:32:16.996Z,11.55
2019-05-18T22:34:45.472Z,10.50
2019-05-18T22:37:14.287Z,11.63
2019-05-18T22:39:43.092Z,12.28
2019-05-18T22:42:11.621Z,10.25
2019-05-18T22:44:40.180Z,11.65
2019-05-18T22:47:08.639Z,11.25
2019-05-18T22:49:37.113Z,12.43
2019-05-18T22:52:05.570Z,13.00
2019-05-18T22:54:34.120Z,12.80
2019-05-18T22:57:02.587Z,13.78
2019-05-18T22:59:31.484Z,13.68
2019-05-18T23:02:00.275Z,14.50
2019-05-18T23:04:28.838Z,13.68
2019-05-18T23:06:57.352Z,13.13
2019-05-18T23:09:25.835Z,12.55
2019-05-18T23:11:54.724Z,13.68
2019-05-18T23:14:23.518Z,14.15
2019-05-18T23:16:52.307Z,12.70
2019-05-18T23:19:21.207Z,12.40
2019-05-18T23:21:49.995Z,12.13
2019-05-18T23:24:18.471Z,12.88
2019-05-18T23:26:46.927Z,14.00
2019-05-18T23:29:15.467Z,12.82
2019-05-18T23:31:44.252Z,12.07
2019-05-18T23:34:12.794Z,12.63
2019-05-18T23:36:41.249Z,14.78
2019-05-18T23:39:10.016Z,14.15
2019-05-18T23:41:38.467Z,14.38
2019-05-18T23:44:06.935Z,14.13
2019-05-18T23:46:35.651Z,15.03
2019-05-18T23:49:10.966Z,14.87
2019-05-18T23:51:34.755Z,15.40
2019-05-18T23:54:06.362Z,13.83
2019-05-18T23:56:34.822Z,15.70
2019-05-18T23:59:04.862Z,15.63
